sensor_id;sensor_type;location;lat;lon;timestamp;temperature;humidity
4107;DHT22;21906;50.812;7.132;2023-07-13T00:02:15;20.60;49.40
4107;DHT22;21906;50.812;7.132;2023-07-13T00:04:41;20.50;48.80
4107;DHT22;21906;50.812;7.132;2023-07-13T00:07:08;20.50;49.20
4107;DHT22;21906;50.812;7.132;2023-07-13T00:09:34;20.50;49.30
4107;DHT22;21906;50.812;7.132;2023-07-13T00:12:00;20.50;49.50
4107;DHT22;21906;50.812;7.132;2023-07-13T00:14:27;20.40;49.70
4107;DHT22;21906;50.812;7.132;2023-07-13T00:16:53;20.40;50.20
4107;DHT22;21906;50.812;7.132;2023-07-13T00:19:19;20.30;50.30
4107;DHT22;21906;50.812;7.132;2023-07-13T00:21:46;20.30;50.70
4107;DHT22;21906;50.812;7.132;2023-07-13T00:24:15;20.10;51.30
4107;DHT22;21906;50.812;7.132;2023-07-13T00:26:42;20.10;51.20
4107;DHT22;21906;50.812;7.132;2023-07-13T00:29:11;20.10;50.90
4107;DHT22;21906;50.812;7.132;2023-07-13T00:31:37;20.00;51.30
4107;DHT22;21906;50.812;7.132;2023-07-13T00:34:03;20.10;50.70
4107;DHT22;21906;50.812;7.132;2023-07-13T00:36:30;20.20;50.30
4107;DHT22;21906;50.812;7.132;2023-07-13T00:38:56;20.20;50.00
4107;DHT22;21906;50.812;7.132;2023-07-13T00:41:22;20.30;49.90
4107;DHT22;21906;50.812;7.132;2023-07-13T00:43:48;20.30;49.50
4107;DHT22;21906;50.812;7.132;2023-07-13T00:46:23;20.30;49.40
4107;DHT22;21906;50.812;7.132;2023-07-13T00:48:50;20.40;49.40
4107;DHT22;21906;50.812;7.132;2023-07-13T00:51:19;20.40;49.50
4107;DHT22;21906;50.812;7.132;2023-07-13T00:53:46;20.40;49.60
4107;DHT22;21906;50.812;7.132;2023-07-13T00:56:12;20.40;49.50
4107;DHT22;21906;50.812;7.132;2023-07-13T00:58:38;20.40;49.50
4107;DHT22;21906;50.812;7.132;2023-07-13T01:01:04;20.40;49.60
4107;DHT22;21906;50.812;7.132;2023-07-13T01:03:29;20.30;50.40
4107;DHT22;21906;50.812;7.132;2023-07-13T01:05:55;20.20;49.40
4107;DHT22;21906;50.812;7.132;2023-07-13T01:08:22;20.20;49.40
4107;DHT22;21906;50.812;7.132;2023-07-13T01:10:52;20.20;49.60
4107;DHT22;21906;50.812;7.132;2023-07-13T01:13:18;20.00;50.00
4107;DHT22;21906;50.812;7.132;2023-07-13T01:15:46;19.90;50.20
4107;DHT22;21906;50.812;7.132;2023-07-13T01:18:22;19.90;51.00
4107;DHT22;21906;50.812;7.132;2023-07-13T01:21:03;19.70;51.80
4107;DHT22;21906;50.812;7.132;2023-07-13T01:23:31;19.70;51.40
4107;DHT22;21906;50.812;7.132;2023-07-13T01:25:57;19.70;51.50
4107;DHT22;21906;50.812;7.132;2023-07-13T01:28:24;19.70;51.60
4107;DHT22;21906;50.812;7.132;2023-07-13T01:30:53;19.70;51.30
4107;DHT22;21906;50.812;7.132;2023-07-13T01:33:19;19.50;52.10
4107;DHT22;21906;50.812;7.132;2023-07-13T01:35:45;19.50;52.10
4107;DHT22;21906;50.812;7.132;2023-07-13T01:38:14;19.40;52.70
4107;DHT22;21906;50.812;7.132;2023-07-13T01:40:40;19.30;52.90
4107;DHT22;21906;50.812;7.132;2023-07-13T01:43:06;19.30;52.90
4107;DHT22;21906;50.812;7.132;2023-07-13T01:45:32;19.30;52.80
4107;DHT22;21906;50.812;7.132;2023-07-13T01:47:57;19.30;53.10
4107;DHT22;21906;50.812;7.132;2023-07-13T01:50:24;19.40;52.50
4107;DHT22;21906;50.812;7.132;2023-07-13T01:52:49;19.40;52.10
4107;DHT22;21906;50.812;7.132;2023-07-13T01:55:15;19.40;52.20
4107;DHT22;21906;50.812;7.132;2023-07-13T01:57:41;19.40;52.60
4107;DHT22;21906;50.812;7.132;2023-07-13T02:00:08;19.40;53.20
4107;DHT22;21906;50.812;7.132;2023-07-13T02:02:34;19.40;52.50
4107;DHT22;21906;50.812;7.132;2023-07-13T02:05:00;19.50;52.60
4107;DHT22;21906;50.812;7.132;2023-07-13T02:07:25;19.50;52.70
4107;DHT22;21906;50.812;7.132;2023-07-13T02:09:51;19.40;52.00
4107;DHT22;21906;50.812;7.132;2023-07-13T02:12:16;19.40;51.90
4107;DHT22;21906;50.812;7.132;2023-07-13T02:14:42;19.40;51.90
4107;DHT22;21906;50.812;7.132;2023-07-13T02:17:10;19.50;52.40
4107;DHT22;21906;50.812;7.132;2023-07-13T02:19:35;19.50;52.30
4107;DHT22;21906;50.812;7.132;2023-07-13T02:22:01;19.40;52.30
4107;DHT22;21906;50.812;7.132;2023-07-13T02:24:27;19.40;52.50
4107;DHT22;21906;50.812;7.132;2023-07-13T02:26:53;19.40;52.60
4107;DHT22;21906;50.812;7.132;2023-07-13T02:29:18;19.30;52.40
4107;DHT22;21906;50.812;7.132;2023-07-13T02:31:44;19.30;52.50
4107;DHT22;21906;50.812;7.132;2023-07-13T02:34:10;19.30;52.70
4107;DHT22;21906;50.812;7.132;2023-07-13T02:36:35;19.20;52.80
4107;DHT22;21906;50.812;7.132;2023-07-13T02:39:03;19.20;53.00
4107;DHT22;21906;50.812;7.132;2023-07-13T02:41:29;19.10;53.90
4107;DHT22;21906;50.812;7.132;2023-07-13T02:43:55;19.20;53.80
4107;DHT22;21906;50.812;7.132;2023-07-13T02:46:29;19.20;53.90
4107;DHT22;21906;50.812;7.132;2023-07-13T02:48:54;19.20;53.50
4107;DHT22;21906;50.812;7.132;2023-07-13T02:51:20;19.00;53.60
4107;DHT22;21906;50.812;7.132;2023-07-13T02:53:45;19.00;53.40
4107;DHT22;21906;50.812;7.132;2023-07-13T02:56:12;19.10;53.80
4107;DHT22;21906;50.812;7.132;2023-07-13T02:58:37;19.10;55.20
4107;DHT22;21906;50.812;7.132;2023-07-13T03:01:11;19.20;53.70
4107;DHT22;21906;50.812;7.132;2023-07-13T03:03:37;19.20;53.40
4107;DHT22;21906;50.812;7.132;2023-07-13T03:06:04;19.40;53.20
4107;DHT22;21906;50.812;7.132;2023-07-13T03:08:31;19.40;52.70
4107;DHT22;21906;50.812;7.132;2023-07-13T03:11:18;19.40;52.80
4107;DHT22;21906;50.812;7.132;2023-07-13T03:13:44;19.40;52.70
4107;DHT22;21906;50.812;7.132;2023-07-13T03:16:10;19.40;52.80
4107;DHT22;21906;50.812;7.132;2023-07-13T03:18:37;19.40;52.60
4107;DHT22;21906;50.812;7.132;2023-07-13T03:21:03;19.40;52.70
4107;DHT22;21906;50.812;7.132;2023-07-13T03:23:29;19.40;52.90
4107;DHT22;21906;50.812;7.132;2023-07-13T03:26:10;19.40;52.80
4107;DHT22;21906;50.812;7.132;2023-07-13T03:28:36;19.40;52.30
4107;DHT22;21906;50.812;7.132;2023-07-13T03:31:08;19.40;52.40
4107;DHT22;21906;50.812;7.132;2023-07-13T03:33:34;19.40;52.10
4107;DHT22;21906;50.812;7.132;2023-07-13T03:36:00;19.40;52.30
4107;DHT22;21906;50.812;7.132;2023-07-13T03:38:26;19.40;52.40
4107;DHT22;21906;50.812;7.132;2023-07-13T03:40:52;19.40;52.40
4107;DHT22;21906;50.812;7.132;2023-07-13T03:43:18;19.40;52.50
4107;DHT22;21906;50.812;7.132;2023-07-13T03:45:43;19.40;52.40
4107;DHT22;21906;50.812;7.132;2023-07-13T03:48:09;19.40;52.30
4107;DHT22;21906;50.812;7.132;2023-07-13T03:50:35;19.40;52.60
4107;DHT22;21906;50.812;7.132;2023-07-13T03:53:00;19.40;52.30
4107;DHT22;21906;50.812;7.132;2023-07-13T03:55:26;19.40;52.20
4107;DHT22;21906;50.812;7.132;2023-07-13T03:57:58;19.40;51.70
4107;DHT22;21906;50.812;7.132;2023-07-13T04:00:24;19.40;51.80
4107;DHT22;21906;50.812;7.132;2023-07-13T04:02:50;19.40;51.50
4107;DHT22;21906;50.812;7.132;2023-07-13T04:05:16;19.40;51.70
4107;DHT22;21906;50.812;7.132;2023-07-13T04:07:42;19.30;52.00
4107;DHT22;21906;50.812;7.132;2023-07-13T04:10:08;19.40;52.00
4107;DHT22;21906;50.812;7.132;2023-07-13T04:12:34;19.30;52.10
4107;DHT22;21906;50.812;7.132;2023-07-13T04:15:00;19.40;52.20
4107;DHT22;21906;50.812;7.132;2023-07-13T04:17:25;19.40;52.30
4107;DHT22;21906;50.812;7.132;2023-07-13T04:19:51;19.30;52.10
4107;DHT22;21906;50.812;7.132;2023-07-13T04:22:17;19.20;52.40
4107;DHT22;21906;50.812;7.132;2023-07-13T04:24:42;19.10;52.70
4107;DHT22;21906;50.812;7.132;2023-07-13T04:27:09;19.10;52.70
4107;DHT22;21906;50.812;7.132;2023-07-13T04:29:34;19.10;53.00
4107;DHT22;21906;50.812;7.132;2023-07-13T04:32:00;19.10;53.30
4107;DHT22;21906;50.812;7.132;2023-07-13T04:34:26;19.10;53.30
4107;DHT22;21906;50.812;7.132;2023-07-13T04:36:51;19.10;53.30
4107;DHT22;21906;50.812;7.132;2023-07-13T04:39:17;19.00;53.50
4107;DHT22;21906;50.812;7.132;2023-07-13T04:41:43;19.10;53.40
4107;DHT22;21906;50.812;7.132;2023-07-13T04:44:08;19.10;53.80
4107;DHT22;21906;50.812;7.132;2023-07-13T04:46:34;19.00;53.70
4107;DHT22;21906;50.812;7.132;2023-07-13T04:49:00;19.00;54.00
4107;DHT22;21906;50.812;7.132;2023-07-13T04:51:25;19.00;54.10
4107;DHT22;21906;50.812;7.132;2023-07-13T04:53:51;19.00;54.30
4107;DHT22;21906;50.812;7.132;2023-07-13T04:56:17;19.10;54.20
4107;DHT22;21906;50.812;7.132;2023-07-13T04:58:43;19.00;54.60
4107;DHT22;21906;50.812;7.132;2023-07-13T05:01:09;19.00;54.80
4107;DHT22;21906;50.812;7.132;2023-07-13T05:03:35;19.00;55.10
4107;DHT22;21906;50.812;7.132;2023-07-13T05:06:04;19.00;55.20
4107;DHT22;21906;50.812;7.132;2023-07-13T05:08:30;19.00;55.50
4107;DHT22;21906;50.812;7.132;2023-07-13T05:10:56;18.90;55.80
4107;DHT22;21906;50.812;7.132;2023-07-13T05:13:22;18.90;56.10
4107;DHT22;21906;50.812;7.132;2023-07-13T05:15:59;19.00;56.30
4107;DHT22;21906;50.812;7.132;2023-07-13T05:18:25;19.00;56.10
4107;DHT22;21906;50.812;7.132;2023-07-13T05:21:01;19.10;55.70
4107;DHT22;21906;50.812;7.132;2023-07-13T05:23:27;19.00;56.10
4107;DHT22;21906;50.812;7.132;2023-07-13T05:25:52;19.10;55.90
4107;DHT22;21906;50.812;7.132;2023-07-13T05:28:18;19.00;56.50
4107;DHT22;21906;50.812;7.132;2023-07-13T05:30:47;18.90;56.70
4107;DHT22;21906;50.812;7.132;2023-07-13T05:33:13;18.90;56.70
4107;DHT22;21906;50.812;7.132;2023-07-13T05:35:39;19.00;56.30
4107;DHT22;21906;50.812;7.132;2023-07-13T05:38:04;19.00;56.50
4107;DHT22;21906;50.812;7.132;2023-07-13T05:40:30;19.00;56.50
4107;DHT22;21906;50.812;7.132;2023-07-13T05:42:55;19.10;56.50
4107;DHT22;21906;50.812;7.132;2023-07-13T05:45:21;19.20;56.50
4107;DHT22;21906;50.812;7.132;2023-07-13T05:47:47;19.20;56.20
4107;DHT22;21906;50.812;7.132;2023-07-13T05:50:12;19.40;56.00
4107;DHT22;21906;50.812;7.132;2023-07-13T05:52:38;19.40;55.80
4107;DHT22;21906;50.812;7.132;2023-07-13T05:55:04;19.40;56.00
4107;DHT22;21906;50.812;7.132;2023-07-13T05:57:30;19.40;56.30
4107;DHT22;21906;50.812;7.132;2023-07-13T05:59:56;19.40;56.00
4107;DHT22;21906;50.812;7.132;2023-07-13T06:02:22;19.40;56.40
4107;DHT22;21906;50.812;7.132;2023-07-13T06:04:47;19.40;56.10
4107;DHT22;21906;50.812;7.132;2023-07-13T06:07:13;19.50;56.10
4107;DHT22;21906;50.812;7.132;2023-07-13T06:09:38;19.50;56.20
4107;DHT22;21906;50.812;7.132;2023-07-13T06:12:05;19.50;56.20
4107;DHT22;21906;50.812;7.132;2023-07-13T06:14:30;19.70;56.10
4107;DHT22;21906;50.812;7.132;2023-07-13T06:16:56;19.70;56.10
4107;DHT22;21906;50.812;7.132;2023-07-13T06:19:21;19.70;55.60
4107;DHT22;21906;50.812;7.132;2023-07-13T06:21:47;19.60;56.10
4107;DHT22;21906;50.812;7.132;2023-07-13T06:24:13;19.60;56.40
4107;DHT22;21906;50.812;7.132;2023-07-13T06:26:38;19.60;56.20
4107;DHT22;21906;50.812;7.132;2023-07-13T06:29:04;19.70;56.10
4107;DHT22;21906;50.812;7.132;2023-07-13T06:31:30;19.70;56.10
4107;DHT22;21906;50.812;7.132;2023-07-13T06:33:56;19.90;56.20
4107;DHT22;21906;50.812;7.132;2023-07-13T06:36:21;19.90;56.00
4107;DHT22;21906;50.812;7.132;2023-07-13T06:38:47;20.00;55.80
4107;DHT22;21906;50.812;7.132;2023-07-13T06:41:13;20.10;56.00
4107;DHT22;21906;50.812;7.132;2023-07-13T06:43:38;20.30;55.10
4107;DHT22;21906;50.812;7.132;2023-07-13T06:46:04;20.30;54.70
4107;DHT22;21906;50.812;7.132;2023-07-13T06:48:30;20.20;55.00
4107;DHT22;21906;50.812;7.132;2023-07-13T06:50:56;20.40;55.10
4107;DHT22;21906;50.812;7.132;2023-07-13T06:53:22;20.40;54.90
4107;DHT22;21906;50.812;7.132;2023-07-13T06:55:48;20.50;54.90
4107;DHT22;21906;50.812;7.132;2023-07-13T06:58:16;20.60;54.20
4107;DHT22;21906;50.812;7.132;2023-07-13T07:00:42;20.90;53.60
4107;DHT22;21906;50.812;7.132;2023-07-13T07:03:07;21.00;53.10
4107;DHT22;21906;50.812;7.132;2023-07-13T07:05:33;21.00;53.10
4107;DHT22;21906;50.812;7.132;2023-07-13T07:07:59;20.90;52.70
4107;DHT22;21906;50.812;7.132;2023-07-13T07:10:25;20.90;53.10
4107;DHT22;21906;50.812;7.132;2023-07-13T07:12:50;20.70;53.10
4107;DHT22;21906;50.812;7.132;2023-07-13T07:15:17;20.70;53.70
4107;DHT22;21906;50.812;7.132;2023-07-13T07:17:43;20.70;53.50
4107;DHT22;21906;50.812;7.132;2023-07-13T07:20:09;20.80;53.40
4107;DHT22;21906;50.812;7.132;2023-07-13T07:22:35;20.90;53.40
4107;DHT22;21906;50.812;7.132;2023-07-13T07:25:01;20.90;53.40
4107;DHT22;21906;50.812;7.132;2023-07-13T07:27:27;20.90;53.50
4107;DHT22;21906;50.812;7.132;2023-07-13T07:29:52;20.90;53.60
4107;DHT22;21906;50.812;7.132;2023-07-13T07:32:19;21.10;52.30
4107;DHT22;21906;50.812;7.132;2023-07-13T07:34:45;21.00;52.60
4107;DHT22;21906;50.812;7.132;2023-07-13T07:37:12;21.00;53.20
4107;DHT22;21906;50.812;7.132;2023-07-13T07:39:38;21.00;52.60
4107;DHT22;21906;50.812;7.132;2023-07-13T07:42:04;20.90;52.60
4107;DHT22;21906;50.812;7.132;2023-07-13T07:44:31;20.90;53.30
4107;DHT22;21906;50.812;7.132;2023-07-13T07:46:57;20.90;53.60
4107;DHT22;21906;50.812;7.132;2023-07-13T07:49:23;20.90;53.70
4107;DHT22;21906;50.812;7.132;2023-07-13T07:51:49;20.90;54.00
4107;DHT22;21906;50.812;7.132;2023-07-13T07:54:14;20.90;53.90
4107;DHT22;21906;50.812;7.132;2023-07-13T07:56:40;21.00;54.00
4107;DHT22;21906;50.812;7.132;2023-07-13T07:59:06;21.00;54.10
4107;DHT22;21906;50.812;7.132;2023-07-13T08:01:35;21.00;54.60
4107;DHT22;21906;50.812;7.132;2023-07-13T08:04:01;21.20;54.60
4107;DHT22;21906;50.812;7.132;2023-07-13T08:06:27;21.40;54.10
4107;DHT22;21906;50.812;7.132;2023-07-13T08:08:53;21.40;52.80
4107;DHT22;21906;50.812;7.132;2023-07-13T08:11:21;21.50;52.90
4107;DHT22;21906;50.812;7.132;2023-07-13T08:13:46;21.60;53.00
4107;DHT22;21906;50.812;7.132;2023-07-13T08:16:12;21.80;53.10
4107;DHT22;21906;50.812;7.132;2023-07-13T08:18:38;21.90;52.50
4107;DHT22;21906;50.812;7.132;2023-07-13T08:21:07;21.70;51.50
4107;DHT22;21906;50.812;7.132;2023-07-13T08:23:34;21.60;53.00
4107;DHT22;21906;50.812;7.132;2023-07-13T08:26:00;21.60;52.70
4107;DHT22;21906;50.812;7.132;2023-07-13T08:28:27;21.70;52.60
4107;DHT22;21906;50.812;7.132;2023-07-13T08:30:52;21.80;52.00
4107;DHT22;21906;50.812;7.132;2023-07-13T08:33:19;21.80;52.30
4107;DHT22;21906;50.812;7.132;2023-07-13T08:35:49;21.80;52.00
4107;DHT22;21906;50.812;7.132;2023-07-13T08:38:16;21.90;50.80
4107;DHT22;21906;50.812;7.132;2023-07-13T08:40:42;21.90;50.80
4107;DHT22;21906;50.812;7.132;2023-07-13T08:43:13;22.00;51.10
4107;DHT22;21906;50.812;7.132;2023-07-13T08:45:47;22.20;50.50
4107;DHT22;21906;50.812;7.132;2023-07-13T08:48:31;22.30;50.20
4107;DHT22;21906;50.812;7.132;2023-07-13T08:53:38;22.40;50.30
4107;DHT22;21906;50.812;7.132;2023-07-13T08:56:11;22.50;49.50
4107;DHT22;21906;50.812;7.132;2023-07-13T08:58:41;22.60;48.90
4107;DHT22;21906;50.812;7.132;2023-07-13T09:04:09;22.70;50.10
4107;DHT22;21906;50.812;7.132;2023-07-13T09:12:27;23.00;48.40
4107;DHT22;21906;50.812;7.132;2023-07-13T09:14:57;22.90;49.20
4107;DHT22;21906;50.812;7.132;2023-07-13T09:17:28;22.50;49.90
4107;DHT22;21906;50.812;7.132;2023-07-13T09:20:01;22.50;50.40
4107;DHT22;21906;50.812;7.132;2023-07-13T09:22:32;22.60;50.50
4107;DHT22;21906;50.812;7.132;2023-07-13T09:25:04;22.90;49.90
4107;DHT22;21906;50.812;7.132;2023-07-13T09:27:41;23.00;50.30
4107;DHT22;21906;50.812;7.132;2023-07-13T09:31:00;23.20;48.50
4107;DHT22;21906;50.812;7.132;2023-07-13T09:33:06;23.20;49.00
4107;DHT22;21906;50.812;7.132;2023-07-13T09:35:34;23.10;50.00
4107;DHT22;21906;50.812;7.132;2023-07-13T09:38:17;23.20;48.40
4107;DHT22;21906;50.812;7.132;2023-07-13T09:43:34;22.90;49.40
4107;DHT22;21906;50.812;7.132;2023-07-13T09:46:00;22.80;50.30
4107;DHT22;21906;50.812;7.132;2023-07-13T09:48:36;23.00;49.60
4107;DHT22;21906;50.812;7.132;2023-07-13T09:51:14;23.20;49.40
4107;DHT22;21906;50.812;7.132;2023-07-13T09:53:42;23.00;49.30
4107;DHT22;21906;50.812;7.132;2023-07-13T09:56:23;22.90;50.60
4107;DHT22;21906;50.812;7.132;2023-07-13T09:58:49;23.00;49.50
4107;DHT22;21906;50.812;7.132;2023-07-13T10:01:15;23.20;48.80
4107;DHT22;21906;50.812;7.132;2023-07-13T10:03:52;23.40;47.10
4107;DHT22;21906;50.812;7.132;2023-07-13T10:06:20;23.40;47.30
4107;DHT22;21906;50.812;7.132;2023-07-13T10:08:50;23.60;47.90
4107;DHT22;21906;50.812;7.132;2023-07-13T10:11:26;23.70;47.50
4107;DHT22;21906;50.812;7.132;2023-07-13T10:14:15;23.60;46.60
4107;DHT22;21906;50.812;7.132;2023-07-13T10:16:43;23.60;47.40
4107;DHT22;21906;50.812;7.132;2023-07-13T10:19:25;23.60;48.90
4107;DHT22;21906;50.812;7.132;2023-07-13T10:21:57;23.40;47.90
4107;DHT22;21906;50.812;7.132;2023-07-13T10:24:34;23.50;49.00
4107;DHT22;21906;50.812;7.132;2023-07-13T10:29:59;23.30;49.50
4107;DHT22;21906;50.812;7.132;2023-07-13T10:32:26;23.30;49.00
4107;DHT22;21906;50.812;7.132;2023-07-13T10:34:52;23.20;49.30
4107;DHT22;21906;50.812;7.132;2023-07-13T10:37:23;23.30;49.30
4107;DHT22;21906;50.812;7.132;2023-07-13T10:39:53;23.50;49.30
4107;DHT22;21906;50.812;7.132;2023-07-13T10:42:49;23.70;48.20
4107;DHT22;21906;50.812;7.132;2023-07-13T10:45:20;24.00;48.40
4107;DHT22;21906;50.812;7.132;2023-07-13T10:47:47;24.10;46.70
4107;DHT22;21906;50.812;7.132;2023-07-13T10:50:18;23.90;48.00
4107;DHT22;21906;50.812;7.132;2023-07-13T10:52:48;24.00;47.10
4107;DHT22;21906;50.812;7.132;2023-07-13T10:58:18;23.80;48.60
4107;DHT22;21906;50.812;7.132;2023-07-13T11:00:56;23.90;47.10
4107;DHT22;21906;50.812;7.132;2023-07-13T11:03:24;23.90;46.30
4107;DHT22;21906;50.812;7.132;2023-07-13T11:06:50;23.90;46.90
4107;DHT22;21906;50.812;7.132;2023-07-13T11:14:00;23.90;43.60
4107;DHT22;21906;50.812;7.132;2023-07-13T11:16:42;23.90;45.00
4107;DHT22;21906;50.812;7.132;2023-07-13T11:19:25;23.80;45.40
4107;DHT22;21906;50.812;7.132;2023-07-13T11:30:18;23.80;45.30
4107;DHT22;21906;50.812;7.132;2023-07-13T11:33:03;23.90;44.20
4107;DHT22;21906;50.812;7.132;2023-07-13T11:35:35;23.90;43.00
4107;DHT22;21906;50.812;7.132;2023-07-13T11:38:02;23.80;42.70
4107;DHT22;21906;50.812;7.132;2023-07-13T11:40:29;23.80;43.10
4107;DHT22;21906;50.812;7.132;2023-07-13T11:43:00;23.80;43.60
4107;DHT22;21906;50.812;7.132;2023-07-13T11:45:26;23.90;44.50
4107;DHT22;21906;50.812;7.132;2023-07-13T11:47:54;24.00;44.00
4107;DHT22;21906;50.812;7.132;2023-07-13T11:50:23;23.90;43.60
4107;DHT22;21906;50.812;7.132;2023-07-13T11:52:51;24.00;43.70
4107;DHT22;21906;50.812;7.132;2023-07-13T11:55:20;23.90;43.20
4107;DHT22;21906;50.812;7.132;2023-07-13T11:58:07;23.80;44.00
4107;DHT22;21906;50.812;7.132;2023-07-13T12:00:35;23.90;44.10
4107;DHT22;21906;50.812;7.132;2023-07-13T12:03:03;23.90;43.60
4107;DHT22;21906;50.812;7.132;2023-07-13T12:05:30;23.70;43.80
4107;DHT22;21906;50.812;7.132;2023-07-13T12:07:58;23.70;44.50
4107;DHT22;21906;50.812;7.132;2023-07-13T12:12:55;23.70;44.50
4107;DHT22;21906;50.812;7.132;2023-07-13T12:15:22;23.80;43.50
4107;DHT22;21906;50.812;7.132;2023-07-13T12:17:48;23.80;43.60
4107;DHT22;21906;50.812;7.132;2023-07-13T12:20:24;23.70;41.90
4107;DHT22;21906;50.812;7.132;2023-07-13T12:22:51;23.60;42.20
4107;DHT22;21906;50.812;7.132;2023-07-13T12:25:18;23.60;43.10
4107;DHT22;21906;50.812;7.132;2023-07-13T12:27:50;23.50;44.90
4107;DHT22;21906;50.812;7.132;2023-07-13T12:30:27;23.50;45.40
4107;DHT22;21906;50.812;7.132;2023-07-13T12:33:11;23.40;46.40
4107;DHT22;21906;50.812;7.132;2023-07-13T12:35:49;23.20;46.30
4107;DHT22;21906;50.812;7.132;2023-07-13T12:38:16;23.20;46.80
4107;DHT22;21906;50.812;7.132;2023-07-13T12:40:42;23.20;45.80
4107;DHT22;21906;50.812;7.132;2023-07-13T12:43:14;23.20;44.90
4107;DHT22;21906;50.812;7.132;2023-07-13T12:48:21;23.40;44.90
4107;DHT22;21906;50.812;7.132;2023-07-13T12:50:48;23.50;45.40
4107;DHT22;21906;50.812;7.132;2023-07-13T12:53:29;23.50;45.00
4107;DHT22;21906;50.812;7.132;2023-07-13T12:56:01;23.70;45.00
4107;DHT22;21906;50.812;7.132;2023-07-13T12:58:37;23.90;44.20
4107;DHT22;21906;50.812;7.132;2023-07-13T13:01:04;24.00;42.70
4107;DHT22;21906;50.812;7.132;2023-07-13T13:03:37;24.00;41.10
4107;DHT22;21906;50.812;7.132;2023-07-13T13:08:47;23.80;42.20
4107;DHT22;21906;50.812;7.132;2023-07-13T13:11:18;23.90;42.30
4107;DHT22;21906;50.812;7.132;2023-07-13T13:13:45;23.90;42.10
4107;DHT22;21906;50.812;7.132;2023-07-13T13:16:31;23.90;42.30
4107;DHT22;21906;50.812;7.132;2023-07-13T13:19:00;23.90;43.00
4107;DHT22;21906;50.812;7.132;2023-07-13T13:21:28;24.20;43.10
4107;DHT22;21906;50.812;7.132;2023-07-13T13:23:54;24.30;41.60
4107;DHT22;21906;50.812;7.132;2023-07-13T13:26:23;24.40;39.90
4107;DHT22;21906;50.812;7.132;2023-07-13T13:28:49;24.40;39.50
4107;DHT22;21906;50.812;7.132;2023-07-13T13:31:15;24.40;39.90
4107;DHT22;21906;50.812;7.132;2023-07-13T13:33:43;24.40;40.90
4107;DHT22;21906;50.812;7.132;2023-07-13T13:36:15;24.40;40.50
4107;DHT22;21906;50.812;7.132;2023-07-13T13:38:42;24.60;39.30
4107;DHT22;21906;50.812;7.132;2023-07-13T13:41:10;24.50;40.20
4107;DHT22;21906;50.812;7.132;2023-07-13T13:43:36;24.50;42.50
4107;DHT22;21906;50.812;7.132;2023-07-13T13:46:03;24.60;41.10
4107;DHT22;21906;50.812;7.132;2023-07-13T13:48:36;24.90;40.50
4107;DHT22;21906;50.812;7.132;2023-07-13T13:51:18;25.30;39.70
4107;DHT22;21906;50.812;7.132;2023-07-13T13:53:45;25.60;38.20
4107;DHT22;21906;50.812;7.132;2023-07-13T13:56:12;25.80;37.70
4107;DHT22;21906;50.812;7.132;2023-07-13T13:58:38;25.90;38.10
4107;DHT22;21906;50.812;7.132;2023-07-13T14:01:05;25.90;37.60
4107;DHT22;21906;50.812;7.132;2023-07-13T14:03:34;25.60;38.10
4107;DHT22;21906;50.812;7.132;2023-07-13T14:06:00;25.40;39.10
4107;DHT22;21906;50.812;7.132;2023-07-13T14:08:26;25.40;39.30
4107;DHT22;21906;50.812;7.132;2023-07-13T14:10:54;25.30;39.70
4107;DHT22;21906;50.812;7.132;2023-07-13T14:13:31;25.20;39.00
4107;DHT22;21906;50.812;7.132;2023-07-13T14:15:58;25.20;38.90
4107;DHT22;21906;50.812;7.132;2023-07-13T14:18:24;25.40;39.10
4107;DHT22;21906;50.812;7.132;2023-07-13T14:20:50;25.40;38.90
4107;DHT22;21906;50.812;7.132;2023-07-13T14:23:17;25.20;39.10
4107;DHT22;21906;50.812;7.132;2023-07-13T14:25:45;25.30;39.00
4107;DHT22;21906;50.812;7.132;2023-07-13T14:28:23;25.20;39.20
4107;DHT22;21906;50.812;7.132;2023-07-13T14:30:50;25.30;38.80
4107;DHT22;21906;50.812;7.132;2023-07-13T14:33:16;25.60;38.90
4107;DHT22;21906;50.812;7.132;2023-07-13T14:35:41;26.00;37.80
4107;DHT22;21906;50.812;7.132;2023-07-13T14:38:14;26.40;35.20
4107;DHT22;21906;50.812;7.132;2023-07-13T14:40:41;26.70;34.90
4107;DHT22;21906;50.812;7.132;2023-07-13T14:43:14;26.90;34.40
4107;DHT22;21906;50.812;7.132;2023-07-13T14:45:44;27.20;34.50
4107;DHT22;21906;50.812;7.132;2023-07-13T14:48:22;27.50;34.90
4107;DHT22;21906;50.812;7.132;2023-07-13T14:50:56;28.00;33.50
4107;DHT22;21906;50.812;7.132;2023-07-13T14:53:25;28.40;33.10
4107;DHT22;21906;50.812;7.132;2023-07-13T14:55:50;28.60;33.40
4107;DHT22;21906;50.812;7.132;2023-07-13T14:58:16;28.90;32.80
4107;DHT22;21906;50.812;7.132;2023-07-13T15:00:42;29.20;32.90
4107;DHT22;21906;50.812;7.132;2023-07-13T15:03:18;29.70;30.80
4107;DHT22;21906;50.812;7.132;2023-07-13T15:05:45;29.80;30.10
4107;DHT22;21906;50.812;7.132;2023-07-13T15:08:16;30.10;29.90
4107;DHT22;21906;50.812;7.132;2023-07-13T15:10:41;30.10;30.60
4107;DHT22;21906;50.812;7.132;2023-07-13T15:13:19;30.20;30.50
4107;DHT22;21906;50.812;7.132;2023-07-13T15:15:50;29.40;30.90
4107;DHT22;21906;50.812;7.132;2023-07-13T15:18:18;28.80;33.00
4107;DHT22;21906;50.812;7.132;2023-07-13T15:20:46;28.10;33.60
4107;DHT22;21906;50.812;7.132;2023-07-13T15:23:14;27.70;34.40
4107;DHT22;21906;50.812;7.132;2023-07-13T15:25:42;27.40;34.60
4107;DHT22;21906;50.812;7.132;2023-07-13T15:28:09;26.90;35.30
4107;DHT22;21906;50.812;7.132;2023-07-13T15:30:40;26.60;35.60
4107;DHT22;21906;50.812;7.132;2023-07-13T15:33:24;26.70;35.80
4107;DHT22;21906;50.812;7.132;2023-07-13T15:35:50;27.00;35.10
4107;DHT22;21906;50.812;7.132;2023-07-13T15:40:50;27.90;34.70
4107;DHT22;21906;50.812;7.132;2023-07-13T15:43:17;28.80;33.50
4107;DHT22;21906;50.812;7.132;2023-07-13T15:45:44;29.60;31.20
4107;DHT22;21906;50.812;7.132;2023-07-13T15:48:20;30.10;29.30
4107;DHT22;21906;50.812;7.132;2023-07-13T15:50:52;30.70;29.40
4107;DHT22;21906;50.812;7.132;2023-07-13T15:53:28;30.60;29.30
4107;DHT22;21906;50.812;7.132;2023-07-13T15:55:54;30.70;30.20
4107;DHT22;21906;50.812;7.132;2023-07-13T15:58:21;31.00;29.80
4107;DHT22;21906;50.812;7.132;2023-07-13T16:00:47;31.70;29.60
4107;DHT22;21906;50.812;7.132;2023-07-13T16:03:17;31.90;28.20
4107;DHT22;21906;50.812;7.132;2023-07-13T16:05:43;31.70;28.40
4107;DHT22;21906;50.812;7.132;2023-07-13T16:08:37;31.50;29.00
4107;DHT22;21906;50.812;7.132;2023-07-13T16:11:18;31.00;29.50
4107;DHT22;21906;50.812;7.132;2023-07-13T16:13:46;30.30;30.30
4107;DHT22;21906;50.812;7.132;2023-07-13T16:16:12;29.50;31.80
4107;DHT22;21906;50.812;7.132;2023-07-13T16:18:39;28.60;32.90
4107;DHT22;21906;50.812;7.132;2023-07-13T16:21:14;28.10;33.80
4107;DHT22;21906;50.812;7.132;2023-07-13T16:23:42;27.50;35.10
4107;DHT22;21906;50.812;7.132;2023-07-13T16:26:37;27.00;35.80
4107;DHT22;21906;50.812;7.132;2023-07-13T16:29:16;26.50;37.10
4107;DHT22;21906;50.812;7.132;2023-07-13T16:34:43;25.90;38.70
4107;DHT22;21906;50.812;7.132;2023-07-13T16:37:18;25.50;40.00
4107;DHT22;21906;50.812;7.132;2023-07-13T16:39:52;25.40;40.80
4107;DHT22;21906;50.812;7.132;2023-07-13T16:42:18;25.30;41.30